sensor_id;sensor_type;location;lat;lon;timestamp;P1;durP1;ratioP1;P2;durP2;ratioP2
70532;SDS011;58088;51.186;17.130;2024-02-21T00:02:21;15.10;;;3.50;;
70532;SDS011;58088;51.186;17.130;2024-02-21T00:04:47;15.50;;;4.40;;
70532;SDS011;58088;51.186;17.130;2024-02-21T00:07:14;14.00;;;4.00;;
70532;SDS011;58088;51.186;17.130;2024-02-21T00:09:40;10.90;;;3.20;;
70532;SDS011;58088;51.186;17.130;2024-02-21T00:12:07;13.70;;;3.10;;
70532;SDS011;58088;51.186;17.130;2024-02-21T00:14:36;13.50;;;3.60;;
70532;SDS011;58088;51.186;17.130;2024-02-21T00:17:02;11.80;;;3.60;;
70532;SDS011;58088;51.186;17.130;2024-02-21T00:19:30;12.40;;;3.10;;
70532;SDS011;58088;51.186;17.130;2024-02-21T00:21:56;14.60;;;2.90;;
70532;SDS011;58088;51.186;17.130;2024-02-21T00:24:23;13.00;;;3.20;;
70532;SDS011;58088;51.186;17.130;2024-02-21T00:26:49;12.20;;;3.00;;
70532;SDS011;58088;51.186;17.130;2024-02-21T00:29:15;13.50;;;3.40;;
70532;SDS011;58088;51.186;17.130;2024-02-21T00:31:41;11.40;;;2.90;;
70532;SDS011;58088;51.186;17.130;2024-02-21T00:34:07;11.70;;;2.90;;
70532;SDS011;58088;51.186;17.130;2024-02-21T00:36:33;13.40;;;3.00;;
70532;SDS011;58088;51.186;17.130;2024-02-21T00:39:00;14.20;;;2.90;;
70532;SDS011;58088;51.186;17.130;2024-02-21T00:41:25;11.10;;;2.70;;
70532;SDS011;58088;51.186;17.130;2024-02-21T00:43:51;12.80;;;2.70;;
70532;SDS011;58088;51.186;17.130;2024-02-21T00:46:18;15.10;;;3.00;;
70532;SDS011;58088;51.186;17.130;2024-02-21T00:48:44;12.40;;;2.50;;
70532;SDS011;58088;51.186;17.130;2024-02-21T00:51:10;9.90;;;2.80;;
70532;SDS011;58088;51.186;17.130;2024-02-21T00:53:36;11.20;;;2.50;;
70532;SDS011;58088;51.186;17.130;2024-02-21T00:56:05;12.40;;;2.70;;
70532;SDS011;58088;51.186;17.130;2024-02-21T00:58:31;12.10;;;3.20;;
70532;SDS011;58088;51.186;17.130;2024-02-21T01:00:57;11.90;;;2.40;;
70532;SDS011;58088;51.186;17.130;2024-02-21T01:03:24;12.70;;;2.60;;
70532;SDS011;58088;51.186;17.130;2024-02-21T01:05:50;11.60;;;2.60;;
70532;SDS011;58088;51.186;17.130;2024-02-21T01:08:16;10.10;;;2.60;;
70532;SDS011;58088;51.186;17.130;2024-02-21T01:10:42;10.80;;;2.70;;
70532;SDS011;58088;51.186;17.130;2024-02-21T01:13:08;9.80;;;2.70;;
70532;SDS011;58088;51.186;17.130;2024-02-21T01:15:35;11.10;;;2.60;;
70532;SDS011;58088;51.186;17.130;2024-02-21T01:18:01;11.70;;;3.30;;
70532;SDS011;58088;51.186;17.130;2024-02-21T01:20:28;11.00;;;3.00;;
70532;SDS011;58088;51.186;17.130;2024-02-21T01:22:54;9.10;;;2.70;;
70532;SDS011;58088;51.186;17.130;2024-02-21T01:25:20;11.30;;;2.80;;
70532;SDS011;58088;51.186;17.130;2024-02-21T01:27:46;9.70;;;3.10;;
70532;SDS011;58088;51.186;17.130;2024-02-21T01:30:13;11.00;;;3.00;;
70532;SDS011;58088;51.186;17.130;2024-02-21T01:32:39;12.30;;;3.40;;
70532;SDS011;58088;51.186;17.130;2024-02-21T01:35:05;14.10;;;3.50;;
70532;SDS011;58088;51.186;17.130;2024-02-21T01:37:33;6.90;;;2.60;;
70532;SDS011;58088;51.186;17.130;2024-02-21T01:39:59;12.30;;;3.30;;
70532;SDS011;58088;51.186;17.130;2024-02-21T01:42:25;11.90;;;3.40;;
70532;SDS011;58088;51.186;17.130;2024-02-21T01:44:51;11.60;;;3.20;;
70532;SDS011;58088;51.186;17.130;2024-02-21T01:47:17;14.40;;;3.10;;
70532;SDS011;58088;51.186;17.130;2024-02-21T01:49:44;14.70;;;3.70;;
70532;SDS011;58088;51.186;17.130;2024-02-21T01:52:11;12.00;;;3.30;;
70532;SDS011;58088;51.186;17.130;2024-02-21T01:54:40;10.40;;;2.80;;
70532;SDS011;58088;51.186;17.130;2024-02-21T01:57:06;13.10;;;3.00;;
70532;SDS011;58088;51.186;17.130;2024-02-21T01:59:33;10.30;;;2.90;;
70532;SDS011;58088;51.186;17.130;2024-02-21T02:02:02;13.40;;;3.70;;
70532;SDS011;58088;51.186;17.130;2024-02-21T02:04:28;10.00;;;3.30;;
70532;SDS011;58088;51.186;17.130;2024-02-21T02:06:55;10.10;;;3.10;;
70532;SDS011;58088;51.186;17.130;2024-02-21T02:09:21;12.10;;;3.30;;
70532;SDS011;58088;51.186;17.130;2024-02-21T02:11:48;13.20;;;3.00;;
70532;SDS011;58088;51.186;17.130;2024-02-21T02:14:14;14.00;;;3.70;;
70532;SDS011;58088;51.186;17.130;2024-02-21T02:16:40;10.10;;;3.20;;
70532;SDS011;58088;51.186;17.130;2024-02-21T02:19:07;12.80;;;3.90;;
70532;SDS011;58088;51.186;17.130;2024-02-21T02:21:39;11.60;;;3.40;;
70532;SDS011;58088;51.186;17.130;2024-02-21T02:24:08;16.90;;;3.60;;
70532;SDS011;58088;51.186;17.130;2024-02-21T02:26:34;15.30;;;3.90;;
70532;SDS011;58088;51.186;17.130;2024-02-21T02:29:03;11.70;;;3.50;;
70532;SDS011;58088;51.186;17.130;2024-02-21T02:31:29;12.80;;;3.80;;
70532;SDS011;58088;51.186;17.130;2024-02-21T02:33:55;11.70;;;3.60;;
70532;SDS011;58088;51.186;17.130;2024-02-21T02:36:21;12.00;;;3.60;;
70532;SDS011;58088;51.186;17.130;2024-02-21T02:38:47;10.90;;;3.40;;
70532;SDS011;58088;51.186;17.130;2024-02-21T02:41:14;12.40;;;3.90;;
70532;SDS011;58088;51.186;17.130;2024-02-21T02:43:40;15.30;;;4.20;;
70532;SDS011;58088;51.186;17.130;2024-02-21T02:46:06;13.50;;;4.30;;
70532;SDS011;58088;51.186;17.130;2024-02-21T02:48:32;13.10;;;4.00;;
70532;SDS011;58088;51.186;17.130;2024-02-21T02:50:58;13.50;;;4.50;;
70532;SDS011;58088;51.186;17.130;2024-02-21T02:53:24;14.70;;;4.20;;
70532;SDS011;58088;51.186;17.130;2024-02-21T02:55:50;11.10;;;4.00;;
70532;SDS011;58088;51.186;17.130;2024-02-21T02:58:16;12.30;;;4.20;;
70532;SDS011;58088;51.186;17.130;2024-02-21T03:00:42;9.90;;;4.10;;
70532;SDS011;58088;51.186;17.130;2024-02-21T03:03:27;13.50;;;4.80;;
70532;SDS011;58088;51.186;17.130;2024-02-21T03:05:53;17.80;;;4.50;;
70532;SDS011;58088;51.186;17.130;2024-02-21T03:08:19;10.60;;;4.60;;
70532;SDS011;58088;51.186;17.130;2024-02-21T03:10:45;10.70;;;3.80;;
70532;SDS011;58088;51.186;17.130;2024-02-21T03:13:12;12.90;;;3.90;;
70532;SDS011;58088;51.186;17.130;2024-02-21T03:15:39;12.00;;;4.00;;
70532;SDS011;58088;51.186;17.130;2024-02-21T03:18:07;11.70;;;3.70;;
70532;SDS011;58088;51.186;17.130;2024-02-21T03:20:34;11.80;;;3.50;;
70532;SDS011;58088;51.186;17.130;2024-02-21T03:23:02;10.10;;;3.00;;
70532;SDS011;58088;51.186;17.130;2024-02-21T03:25:28;9.60;;;3.10;;
70532;SDS011;58088;51.186;17.130;2024-02-21T03:27:54;12.20;;;2.90;;
70532;SDS011;58088;51.186;17.130;2024-02-21T03:30:20;12.10;;;3.50;;
70532;SDS011;58088;51.186;17.130;2024-02-21T03:32:46;10.60;;;3.20;;
70532;SDS011;58088;51.186;17.130;2024-02-21T03:35:12;12.20;;;3.20;;
70532;SDS011;58088;51.186;17.130;2024-02-21T03:37:38;10.80;;;3.60;;
70532;SDS011;58088;51.186;17.130;2024-02-21T03:40:08;12.80;;;3.70;;
70532;SDS011;58088;51.186;17.130;2024-02-21T03:42:35;10.60;;;3.10;;
70532;SDS011;58088;51.186;17.130;2024-02-21T03:45:01;10.60;;;2.80;;
70532;SDS011;58088;51.186;17.130;2024-02-21T03:47:27;13.60;;;3.40;;
70532;SDS011;58088;51.186;17.130;2024-02-21T03:49:53;11.60;;;3.20;;
70532;SDS011;58088;51.186;17.130;2024-02-21T03:52:19;11.20;;;3.80;;
70532;SDS011;58088;51.186;17.130;2024-02-21T03:54:45;10.70;;;3.00;;
70532;SDS011;58088;51.186;17.130;2024-02-21T03:57:12;10.70;;;3.60;;
70532;SDS011;58088;51.186;17.130;2024-02-21T03:59:38;11.70;;;3.80;;
70532;SDS011;58088;51.186;17.130;2024-02-21T04:02:06;13.40;;;3.80;;
70532;SDS011;58088;51.186;17.130;2024-02-21T04:04:35;12.90;;;3.80;;
70532;SDS011;58088;51.186;17.130;2024-02-21T04:07:04;10.20;;;3.20;;
70532;SDS011;58088;51.186;17.130;2024-02-21T04:09:34;12.60;;;3.60;;
70532;SDS011;58088;51.186;17.130;2024-02-21T04:12:00;11.60;;;3.70;;
70532;SDS011;58088;51.186;17.130;2024-02-21T04:14:27;10.60;;;3.60;;
70532;SDS011;58088;51.186;17.130;2024-02-21T04:16:53;9.20;;;3.10;;
70532;SDS011;58088;51.186;17.130;2024-02-21T04:19:19;12.50;;;3.60;;
70532;SDS011;58088;51.186;17.130;2024-02-21T04:21:45;10.20;;;3.20;;
70532;SDS011;58088;51.186;17.130;2024-02-21T04:24:11;11.40;;;3.40;;
70532;SDS011;58088;51.186;17.130;2024-02-21T04:26:37;11.50;;;3.40;;
70532;SDS011;58088;51.186;17.130;2024-02-21T04:29:03;10.90;;;3.30;;
70532;SDS011;58088;51.186;17.130;2024-02-21T04:31:32;12.30;;;3.20;;
70532;SDS011;58088;51.186;17.130;2024-02-21T04:33:58;10.10;;;3.40;;
70532;SDS011;58088;51.186;17.130;2024-02-21T04:36:24;12.70;;;3.10;;
70532;SDS011;58088;51.186;17.130;2024-02-21T04:38:50;11.70;;;3.30;;
70532;SDS011;58088;51.186;17.130;2024-02-21T04:41:16;10.20;;;3.10;;
70532;SDS011;58088;51.186;17.130;2024-02-21T04:43:42;11.30;;;3.90;;
70532;SDS011;58088;51.186;17.130;2024-02-21T04:46:08;8.60;;;2.80;;
70532;SDS011;58088;51.186;17.130;2024-02-21T04:48:35;13.10;;;3.50;;
70532;SDS011;58088;51.186;17.130;2024-02-21T04:51:01;10.50;;;3.10;;
70532;SDS011;58088;51.186;17.130;2024-02-21T04:53:27;12.40;;;3.00;;
70532;SDS011;58088;51.186;17.130;2024-02-21T04:55:54;12.40;;;3.40;;
70532;SDS011;58088;51.186;17.130;2024-02-21T04:58:20;10.00;;;3.20;;
70532;SDS011;58088;51.186;17.130;2024-02-21T05:00:46;9.90;;;3.20;;
70532;SDS011;58088;51.186;17.130;2024-02-21T05:03:12;10.70;;;3.40;;
70532;SDS011;58088;51.186;17.130;2024-02-21T05:05:38;11.50;;;3.60;;
70532;SDS011;58088;51.186;17.130;2024-02-21T05:08:04;9.20;;;3.40;;
70532;SDS011;58088;51.186;17.130;2024-02-21T05:10:30;10.80;;;3.10;;
70532;SDS011;58088;51.186;17.130;2024-02-21T05:12:57;10.70;;;3.30;;
70532;SDS011;58088;51.186;17.130;2024-02-21T05:15:24;9.50;;;3.30;;
70532;SDS011;58088;51.186;17.130;2024-02-21T05:17:50;11.40;;;3.80;;
70532;SDS011;58088;51.186;17.130;2024-02-21T05:20:16;10.30;;;3.20;;
70532;SDS011;58088;51.186;17.130;2024-02-21T05:22:42;10.10;;;3.40;;
70532;SDS011;58088;51.186;17.130;2024-02-21T05:25:09;11.60;;;4.00;;
70532;SDS011;58088;51.186;17.130;2024-02-21T05:27:35;14.30;;;4.10;;
70532;SDS011;58088;51.186;17.130;2024-02-21T05:30:03;10.60;;;3.50;;
70532;SDS011;58088;51.186;17.130;2024-02-21T05:32:32;10.10;;;3.80;;
70532;SDS011;58088;51.186;17.130;2024-02-21T05:34:58;9.80;;;3.30;;
70532;SDS011;58088;51.186;17.130;2024-02-21T05:37:24;14.20;;;4.00;;
70532;SDS011;58088;51.186;17.130;2024-02-21T05:39:50;7.60;;;2.60;;
70532;SDS011;58088;51.186;17.130;2024-02-21T05:42:17;10.30;;;3.60;;
70532;SDS011;58088;51.186;17.130;2024-02-21T05:44:43;9.20;;;3.60;;
70532;SDS011;58088;51.186;17.130;2024-02-21T05:47:09;12.90;;;4.00;;
70532;SDS011;58088;51.186;17.130;2024-02-21T05:49:36;12.00;;;4.10;;
70532;SDS011;58088;51.186;17.130;2024-02-21T05:52:02;12.10;;;4.20;;
70532;SDS011;58088;51.186;17.130;2024-02-21T05:54:29;12.90;;;4.10;;
70532;SDS011;58088;51.186;17.130;2024-02-21T05:56:55;13.10;;;3.90;;
70532;SDS011;58088;51.186;17.130;2024-02-21T05:59:22;12.90;;;3.80;;
70532;SDS011;58088;51.186;17.130;2024-02-21T06:01:56;9.40;;;3.50;;
70532;SDS011;58088;51.186;17.130;2024-02-21T06:04:23;10.30;;;3.60;;
70532;SDS011;58088;51.186;17.130;2024-02-21T06:06:49;9.50;;;3.50;;
70532;SDS011;58088;51.186;17.130;2024-02-21T06:09:15;10.00;;;3.40;;
70532;SDS011;58088;51.186;17.130;2024-02-21T06:11:41;7.70;;;2.70;;
70532;SDS011;58088;51.186;17.130;2024-02-21T06:14:08;9.00;;;3.50;;
70532;SDS011;58088;51.186;17.130;2024-02-21T06:16:34;10.30;;;3.30;;
70532;SDS011;58088;51.186;17.130;2024-02-21T06:19:00;9.00;;;3.50;;
70532;SDS011;58088;51.186;17.130;2024-02-21T06:21:29;7.30;;;3.10;;
70532;SDS011;58088;51.186;17.130;2024-02-21T06:23:55;9.20;;;3.40;;
70532;SDS011;58088;51.186;17.130;2024-02-21T06:26:21;14.90;;;4.50;;
70532;SDS011;58088;51.186;17.130;2024-02-21T06:28:47;9.80;;;3.40;;
70532;SDS011;58088;51.186;17.130;2024-02-21T06:31:13;11.90;;;3.10;;
70532;SDS011;58088;51.186;17.130;2024-02-21T06:33:40;11.70;;;3.70;;
70532;SDS011;58088;51.186;17.130;2024-02-21T06:36:06;11.30;;;3.40;;
70532;SDS011;58088;51.186;17.130;2024-02-21T06:38:33;11.10;;;3.40;;
70532;SDS011;58088;51.186;17.130;2024-02-21T06:40:59;11.90;;;3.70;;
70532;SDS011;58088;51.186;17.130;2024-02-21T06:43:28;9.20;;;3.00;;
70532;SDS011;58088;51.186;17.130;2024-02-21T06:45:54;8.00;;;2.80;;
70532;SDS011;58088;51.186;17.130;2024-02-21T06:48:22;9.50;;;3.20;;
70532;SDS011;58088;51.186;17.130;2024-02-21T06:50:48;8.50;;;3.10;;
70532;SDS011;58088;51.186;17.130;2024-02-21T06:53:14;10.40;;;2.70;;
70532;SDS011;58088;51.186;17.130;2024-02-21T06:55:40;10.50;;;3.40;;
70532;SDS011;58088;51.186;17.130;2024-02-21T06:58:06;9.00;;;3.20;;
70532;SDS011;58088;51.186;17.130;2024-02-21T07:00:38;8.20;;;3.30;;
70532;SDS011;58088;51.186;17.130;2024-02-21T07:03:05;10.80;;;3.90;;
70532;SDS011;58088;51.186;17.130;2024-02-21T07:05:31;9.30;;;3.60;;
70532;SDS011;58088;51.186;17.130;2024-02-21T07:07:57;10.80;;;3.40;;
70532;SDS011;58088;51.186;17.130;2024-02-21T07:10:23;12.10;;;4.00;;
70532;SDS011;58088;51.186;17.130;2024-02-21T07:12:49;7.90;;;3.10;;
70532;SDS011;58088;51.186;17.130;2024-02-21T07:15:17;11.70;;;3.40;;
70532;SDS011;58088;51.186;17.130;2024-02-21T07:17:43;12.00;;;3.20;;
70532;SDS011;58088;51.186;17.130;2024-02-21T07:20:10;14.30;;;4.40;;
70532;SDS011;58088;51.186;17.130;2024-02-21T07:22:36;10.70;;;3.20;;
70532;SDS011;58088;51.186;17.130;2024-02-21T07:25:02;10.60;;;3.00;;
70532;SDS011;58088;51.186;17.130;2024-02-21T07:27:28;12.20;;;3.10;;
70532;SDS011;58088;51.186;17.130;2024-02-21T07:29:57;10.50;;;3.30;;
70532;SDS011;58088;51.186;17.130;2024-02-21T07:32:23;11.90;;;3.40;;
70532;SDS011;58088;51.186;17.130;2024-02-21T07:34:49;11.00;;;3.30;;
70532;SDS011;58088;51.186;17.130;2024-02-21T07:37:15;10.40;;;3.60;;
70532;SDS011;58088;51.186;17.130;2024-02-21T07:39:41;10.10;;;3.60;;
70532;SDS011;58088;51.186;17.130;2024-02-21T07:42:07;9.80;;;3.30;;
70532;SDS011;58088;51.186;17.130;2024-02-21T07:44:33;16.90;;;3.80;;
70532;SDS011;58088;51.186;17.130;2024-02-21T07:47:00;11.30;;;3.20;;
70532;SDS011;58088;51.186;17.130;2024-02-21T07:49:26;9.60;;;3.30;;
70532;SDS011;58088;51.186;17.130;2024-02-21T07:51:52;11.10;;;3.90;;
70532;SDS011;58088;51.186;17.130;2024-02-21T07:54:18;8.10;;;2.70;;
70532;SDS011;58088;51.186;17.130;2024-02-21T07:56:44;14.90;;;4.30;;
70532;SDS011;58088;51.186;17.130;2024-02-21T07:59:10;12.10;;;4.00;;
70532;SDS011;58088;51.186;17.130;2024-02-21T08:01:38;12.80;;;4.00;;
70532;SDS011;58088;51.186;17.130;2024-02-21T08:04:05;11.20;;;3.80;;
70532;SDS011;58088;51.186;17.130;2024-02-21T08:06:31;12.70;;;3.20;;
70532;SDS011;58088;51.186;17.130;2024-02-21T08:08:57;10.50;;;3.40;;
70532;SDS011;58088;51.186;17.130;2024-02-21T08:11:23;13.60;;;3.10;;
70532;SDS011;58088;51.186;17.130;2024-02-21T08:13:49;10.70;;;3.80;;
70532;SDS011;58088;51.186;17.130;2024-02-21T08:16:15;12.20;;;4.00;;
70532;SDS011;58088;51.186;17.130;2024-02-21T08:18:44;11.80;;;3.80;;
70532;SDS011;58088;51.186;17.130;2024-02-21T08:21:10;12.00;;;3.00;;
70532;SDS011;58088;51.186;17.130;2024-02-21T08:23:36;10.80;;;3.50;;
70532;SDS011;58088;51.186;17.130;2024-02-21T08:26:03;12.10;;;3.90;;
70532;SDS011;58088;51.186;17.130;2024-02-21T08:28:30;14.70;;;4.50;;
70532;SDS011;58088;51.186;17.130;2024-02-21T08:30:56;11.30;;;3.80;;
70532;SDS011;58088;51.186;17.130;2024-02-21T08:33:22;12.30;;;3.80;;
70532;SDS011;58088;51.186;17.130;2024-02-21T08:35:51;14.30;;;4.00;;
70532;SDS011;58088;51.186;17.130;2024-02-21T08:38:18;15.10;;;4.40;;
70532;SDS011;58088;51.186;17.130;2024-02-21T08:40:44;13.50;;;4.50;;
70532;SDS011;58088;51.186;17.130;2024-02-21T08:43:10;9.20;;;3.10;;
70532;SDS011;58088;51.186;17.130;2024-02-21T08:45:37;12.90;;;4.10;;
70532;SDS011;58088;51.186;17.130;2024-02-21T08:48:03;12.40;;;3.90;;
70532;SDS011;58088;51.186;17.130;2024-02-21T08:50:30;12.10;;;4.40;;
70532;SDS011;58088;51.186;17.130;2024-02-21T08:52:56;12.80;;;4.50;;
70532;SDS011;58088;51.186;17.130;2024-02-21T08:55:22;12.00;;;4.30;;
70532;SDS011;58088;51.186;17.130;2024-02-21T08:57:49;11.20;;;4.00;;
70532;SDS011;58088;51.186;17.130;2024-02-21T09:00:16;10.60;;;2.70;;
70532;SDS011;58088;51.186;17.130;2024-02-21T09:02:42;11.80;;;3.90;;
70532;SDS011;58088;51.186;17.130;2024-02-21T09:05:09;11.90;;;4.20;;
70532;SDS011;58088;51.186;17.130;2024-02-21T09:07:35;12.70;;;4.00;;
70532;SDS011;58088;51.186;17.130;2024-02-21T09:10:02;12.20;;;3.40;;
70532;SDS011;58088;51.186;17.130;2024-02-21T09:12:28;13.20;;;4.30;;
70532;SDS011;58088;51.186;17.130;2024-02-21T09:14:55;11.40;;;4.10;;
70532;SDS011;58088;51.186;17.130;2024-02-21T09:17:21;12.80;;;4.50;;
70532;SDS011;58088;51.186;17.130;2024-02-21T09:19:47;11.70;;;3.90;;
70532;SDS011;58088;51.186;17.130;2024-02-21T09:22:14;12.50;;;4.20;;
70532;SDS011;58088;51.186;17.130;2024-02-21T09:24:40;15.50;;;4.40;;
70532;SDS011;58088;51.186;17.130;2024-02-21T09:27:06;12.20;;;3.90;;
70532;SDS011;58088;51.186;17.130;2024-02-21T09:29:32;11.60;;;3.80;;
70532;SDS011;58088;51.186;17.130;2024-02-21T09:32:01;11.10;;;3.90;;
70532;SDS011;58088;51.186;17.130;2024-02-21T09:34:29;13.10;;;3.90;;
70532;SDS011;58088;51.186;17.130;2024-02-21T09:36:56;11.00;;;3.90;;
70532;SDS011;58088;51.186;17.130;2024-02-21T09:39:22;14.50;;;3.80;;
70532;SDS011;58088;51.186;17.130;2024-02-21T09:41:59;10.60;;;4.10;;
70532;SDS011;58088;51.186;17.130;2024-02-21T09:44:37;11.00;;;3.50;;
70532;SDS011;58088;51.186;17.130;2024-02-21T09:49:57;9.80;;;3.00;;
70532;SDS011;58088;51.186;17.130;2024-02-21T09:52:26;12.70;;;4.10;;
70532;SDS011;58088;51.186;17.130;2024-02-21T09:54:53;11.80;;;4.30;;
70532;SDS011;58088;51.186;17.130;2024-02-21T09:57:20;11.30;;;4.20;;
70532;SDS011;58088;51.186;17.130;2024-02-21T09:59:47;11.50;;;3.40;;
70532;SDS011;58088;51.186;17.130;2024-02-21T10:02:13;11.80;;;3.60;;
70532;SDS011;58088;51.186;17.130;2024-02-21T10:04:40;14.60;;;4.20;;
70532;SDS011;58088;51.186;17.130;2024-02-21T10:07:07;10.70;;;3.70;;
70532;SDS011;58088;51.186;17.130;2024-02-21T10:09:33;12.90;;;4.10;;
70532;SDS011;58088;51.186;17.130;2024-02-21T10:12:09;10.50;;;3.60;;
70532;SDS011;58088;51.186;17.130;2024-02-21T10:14:37;9.90;;;3.90;;
70532;SDS011;58088;51.186;17.130;2024-02-21T10:17:04;11.70;;;3.70;;
70532;SDS011;58088;51.186;17.130;2024-02-21T10:19:35;12.10;;;4.00;;
70532;SDS011;58088;51.186;17.130;2024-02-21T10:22:06;12.10;;;4.70;;
70532;SDS011;58088;51.186;17.130;2024-02-21T10:24:34;12.20;;;4.30;;
70532;SDS011;58088;51.186;17.130;2024-02-21T10:27:07;11.20;;;4.40;;
70532;SDS011;58088;51.186;17.130;2024-02-21T10:29:40;11.00;;;3.90;;
70532;SDS011;58088;51.186;17.130;2024-02-21T10:32:08;13.40;;;4.30;;
70532;SDS011;58088;51.186;17.130;2024-02-21T10:34:36;14.30;;;4.10;;
70532;SDS011;58088;51.186;17.130;2024-02-21T10:37:05;12.20;;;4.10;;
70532;SDS011;58088;51.186;17.130;2024-02-21T10:39:34;16.40;;;4.30;;
70532;SDS011;58088;51.186;17.130;2024-02-21T10:42:04;12.00;;;4.40;;
70532;SDS011;58088;51.186;17.130;2024-02-21T10:44:33;11.40;;;4.00;;
70532;SDS011;58088;51.186;17.130;2024-02-21T10:47:07;11.40;;;4.50;;
70532;SDS011;58088;51.186;17.130;2024-02-21T10:49:41;13.00;;;4.30;;
70532;SDS011;58088;51.186;17.130;2024-02-21T10:55:21;11.80;;;4.40;;
70532;SDS011;58088;51.186;17.130;2024-02-21T10:57:55;12.50;;;4.50;;
70532;SDS011;58088;51.186;17.130;2024-02-21T11:00:24;10.00;;;4.30;;
70532;SDS011;58088;51.186;17.130;2024-02-21T11:02:57;14.90;;;4.70;;
70532;SDS011;58088;51.186;17.130;2024-02-21T11:05:25;15.60;;;5.00;;
70532;SDS011;58088;51.186;17.130;2024-02-21T11:07:53;11.10;;;4.70;;
70532;SDS011;58088;51.186;17.130;2024-02-21T11:10:23;12.60;;;4.90;;
70532;SDS011;58088;51.186;17.130;2024-02-21T11:13:13;12.00;;;4.60;;
70532;SDS011;58088;51.186;17.130;2024-02-21T11:15:40;11.80;;;5.00;;
70532;SDS011;58088;51.186;17.130;2024-02-21T11:18:06;9.80;;;3.90;;
70532;SDS011;58088;51.186;17.130;2024-02-21T11:20:36;11.30;;;4.30;;
70532;SDS011;58088;51.186;17.130;2024-02-21T11:23:04;11.70;;;3.70;;
70532;SDS011;58088;51.186;17.130;2024-02-21T11:25:30;11.30;;;4.40;;
70532;SDS011;58088;51.186;17.130;2024-02-21T11:28:03;11.90;;;4.80;;
70532;SDS011;58088;51.186;17.130;2024-02-21T11:30:31;10.80;;;4.70;;
70532;SDS011;58088;51.186;17.130;2024-02-21T11:33:02;12.00;;;4.90;;
70532;SDS011;58088;51.186;17.130;2024-02-21T11:35:36;10.90;;;4.50;;
70532;SDS011;58088;51.186;17.130;2024-02-21T11:38:10;10.10;;;4.10;;
70532;SDS011;58088;51.186;17.130;2024-02-21T11:40:41;11.60;;;4.70;;
70532;SDS011;58088;51.186;17.130;2024-02-21T11:43:10;11.40;;;4.70;;
70532;SDS011;58088;51.186;17.130;2024-02-21T11:45:36;11.80;;;4.00;;
70532;SDS011;58088;51.186;17.130;2024-02-21T11:48:05;10.60;;;4.50;;
70532;SDS011;58088;51.186;17.130;2024-02-21T11:50:36;10.40;;;4.20;;
70532;SDS011;58088;51.186;17.130;2024-02-21T11:53:05;11.70;;;4.50;;
70532;SDS011;58088;51.186;17.130;2024-02-21T11:55:32;10.60;;;4.90;;
70532;SDS011;58088;51.186;17.130;2024-02-21T11:57:58;15.50;;;5.00;;
70532;SDS011;58088;51.186;17.130;2024-02-21T12:00:25;12.40;;;4.80;;
70532;SDS011;58088;51.186;17.130;2024-02-21T12:02:51;13.40;;;4.60;;
70532;SDS011;58088;51.186;17.130;2024-02-21T12:05:21;12.40;;;4.80;;
70532;SDS011;58088;51.186;17.130;2024-02-21T12:07:47;10.20;;;4.30;;
70532;SDS011;58088;51.186;17.130;2024-02-21T12:10:13;11.40;;;4.70;;
70532;SDS011;58088;51.186;17.130;2024-02-21T12:12:40;11.70;;;4.90;;
70532;SDS011;58088;51.186;17.130;2024-02-21T12:15:07;12.00;;;4.50;;
70532;SDS011;58088;51.186;17.130;2024-02-21T12:17:37;12.40;;;5.10;;
70532;SDS011;58088;51.186;17.130;2024-02-21T12:20:06;11.80;;;5.00;;
70532;SDS011;58088;51.186;17.130;2024-02-21T12:22:41;11.20;;;5.00;;
70532;SDS011;58088;51.186;17.130;2024-02-21T12:25:18;11.60;;;5.30;;
70532;SDS011;58088;51.186;17.130;2024-02-21T12:27:46;13.90;;;4.90;;
70532;SDS011;58088;51.186;17.130;2024-02-21T12:30:12;11.30;;;4.20;;
70532;SDS011;58088;51.186;17.130;2024-02-21T12:32:39;10.30;;;4.00;;
70532;SDS011;58088;51.186;17.130;2024-02-21T12:35:05;11.40;;;5.00;;
70532;SDS011;58088;51.186;17.130;2024-02-21T12:37:32;13.10;;;4.70;;
70532;SDS011;58088;51.186;17.130;2024-02-21T12:39:59;11.00;;;4.70;;
70532;SDS011;58088;51.186;17.130;2024-02-21T12:42:26;10.10;;;4.50;;
70532;SDS011;58088;51.186;17.130;2024-02-21T12:44:52;10.00;;;4.80;;
70532;SDS011;58088;51.186;17.130;2024-02-21T12:47:19;11.00;;;4.60;;
70532;SDS011;58088;51.186;17.130;2024-02-21T12:49:49;13.00;;;4.90;;
70532;SDS011;58088;51.186;17.130;2024-02-21T12:52:15;10.40;;;4.90;;
70532;SDS011;58088;51.186;17.130;2024-02-21T12:54:42;12.50;;;4.80;;
70532;SDS011;58088;51.186;17.130;2024-02-21T12:57:11;10.30;;;5.00;;
70532;SDS011;58088;51.186;17.130;2024-02-21T12:59:37;12.00;;;5.30;;
70532;SDS011;58088;51.186;17.130;2024-02-21T13:02:04;9.90;;;5.20;;
70532;SDS011;58088;51.186;17.130;2024-02-21T13:04:30;10.70;;;4.50;;
70532;SDS011;58088;51.186;17.130;2024-02-21T13:06:56;12.10;;;5.30;;
70532;SDS011;58088;51.186;17.130;2024-02-21T13:09:22;9.90;;;5.00;;
70532;SDS011;58088;51.186;17.130;2024-02-21T13:11:48;11.30;;;5.20;;
70532;SDS011;58088;51.186;17.130;2024-02-21T13:14:16;10.00;;;5.00;;
70532;SDS011;58088;51.186;17.130;2024-02-21T13:16:43;12.60;;;5.20;;
70532;SDS011;58088;51.186;17.130;2024-02-21T13:19:09;12.40;;;5.60;;
70532;SDS011;58088;51.186;17.130;2024-02-21T13:21:36;12.20;;;5.80;;
70532;SDS011;58088;51.186;17.130;2024-02-21T13:24:02;15.10;;;5.60;;
70532;SDS011;58088;51.186;17.130;2024-02-21T13:26:29;12.90;;;4.80;;
70532;SDS011;58088;51.186;17.130;2024-02-21T13:28:55;12.90;;;4.80;;
70532;SDS011;58088;51.186;17.130;2024-02-21T13:31:22;11.50;;;4.50;;
70532;SDS011;58088;51.186;17.130;2024-02-21T13:33:48;12.70;;;4.10;;
70532;SDS011;58088;51.186;17.130;2024-02-21T13:36:15;8.60;;;3.30;;
70532;SDS011;58088;51.186;17.130;2024-02-21T13:38:41;9.40;;;3.60;;
70532;SDS011;58088;51.186;17.130;2024-02-21T13:41:07;9.80;;;3.40;;
70532;SDS011;58088;51.186;17.130;2024-02-21T13:43:34;8.20;;;3.40;;
70532;SDS011;58088;51.186;17.130;2024-02-21T13:46:01;10.10;;;3.60;;
70532;SDS011;58088;51.186;17.130;2024-02-21T13:48:31;9.20;;;3.70;;
70532;SDS011;58088;51.186;17.130;2024-02-21T13:50:59;10.40;;;3.10;;
70532;SDS011;58088;51.186;17.130;2024-02-21T13:53:25;8.60;;;3.50;;
70532;SDS011;58088;51.186;17.130;2024-02-21T13:55:51;12.70;;;3.50;;
70532;SDS011;58088;51.186;17.130;2024-02-21T13:58:18;9.20;;;3.60;;
70532;SDS011;58088;51.186;17.130;2024-02-21T14:00:45;8.50;;;3.30;;
70532;SDS011;58088;51.186;17.130;2024-02-21T14:03:11;7.10;;;3.40;;
70532;SDS011;58088;51.186;17.130;2024-02-21T14:05:38;6.80;;;3.20;;
70532;SDS011;58088;51.186;17.130;2024-02-21T14:08:06;9.60;;;3.50;;
70532;SDS011;58088;51.186;17.130;2024-02-21T14:10:33;10.40;;;3.70;;
70532;SDS011;58088;51.186;17.130;2024-02-21T14:12:59;6.80;;;2.20;;
70532;SDS011;58088;51.186;17.130;2024-02-21T14:15:26;8.80;;;3.50;;
70532;SDS011;58088;51.186;17.130;2024-02-21T14:17:52;9.60;;;3.60;;
70532;SDS011;58088;51.186;17.130;2024-02-21T14:20:18;10.60;;;3.80;;
70532;SDS011;58088;51.186;17.130;2024-02-21T14:22:45;8.00;;;3.10;;
70532;SDS011;58088;51.186;17.130;2024-02-21T14:25:11;8.30;;;3.30;;
70532;SDS011;58088;51.186;17.130;2024-02-21T14:27:37;10.50;;;3.60;;
70532;SDS011;58088;51.186;17.130;2024-02-21T14:30:04;8.30;;;3.20;;